sensor_id;sensor_type;location;lat;lon;timestamp;temperature;humidity
20070;DHT22;10195;50.868;4.382;2022-12-20T00:00:01;12.90;99.90
20070;DHT22;10195;50.868;4.382;2022-12-20T00:02:27;13.00;99.90
20070;DHT22;10195;50.868;4.382;2022-12-20T00:04:53;13.00;99.90
20070;DHT22;10195;50.868;4.382;2022-12-20T00:07:18;13.00;99.90
20070;DHT22;10195;50.868;4.382;2022-12-20T00:09:44;13.00;99.90
20070;DHT22;10195;50.868;4.382;2022-12-20T00:12:09;12.90;99.90
20070;DHT22;10195;50.868;4.382;2022-12-20T00:14:35;12.90;99.90
20070;DHT22;10195;50.868;4.382;2022-12-20T00:17:01;12.90;99.90
20070;DHT22;10195;50.868;4.382;2022-12-20T00:19:26;12.80;99.90
20070;DHT22;10195;50.868;4.382;2022-12-20T00:21:52;12.80;99.90
20070;DHT22;10195;50.868;4.382;2022-12-20T00:24:18;12.70;99.90
20070;DHT22;10195;50.868;4.382;2022-12-20T00:26:43;12.70;99.90
20070;DHT22;10195;50.868;4.382;2022-12-20T00:29:09;12.70;99.90
20070;DHT22;10195;50.868;4.382;2022-12-20T00:31:35;12.70;99.90
20070;DHT22;10195;50.868;4.382;2022-12-20T00:34:01;12.70;99.90
20070;DHT22;10195;50.868;4.382;2022-12-20T00:36:28;12.70;99.90
20070;DHT22;10195;50.868;4.382;2022-12-20T00:38:56;12.70;99.90
20070;DHT22;10195;50.868;4.382;2022-12-20T00:41:23;12.60;99.90
20070;DHT22;10195;50.868;4.382;2022-12-20T00:43:49;12.70;99.90
20070;DHT22;10195;50.868;4.382;2022-12-20T00:46:17;12.70;99.90
20070;DHT22;10195;50.868;4.382;2022-12-20T00:48:43;12.70;99.90
20070;DHT22;10195;50.868;4.382;2022-12-20T00:51:21;12.80;99.90
20070;DHT22;10195;50.868;4.382;2022-12-20T00:53:47;12.80;99.90
20070;DHT22;10195;50.868;4.382;2022-12-20T00:56:13;12.80;99.90
20070;DHT22;10195;50.868;4.382;2022-12-20T00:58:41;12.80;99.90
20070;DHT22;10195;50.868;4.382;2022-12-20T01:01:16;12.80;99.90
20070;DHT22;10195;50.868;4.382;2022-12-20T01:03:42;12.80;99.90
20070;DHT22;10195;50.868;4.382;2022-12-20T01:06:09;12.70;99.90
20070;DHT22;10195;50.868;4.382;2022-12-20T01:08:34;12.60;99.90
20070;DHT22;10195;50.868;4.382;2022-12-20T01:11:02;12.70;99.90
20070;DHT22;10195;50.868;4.382;2022-12-20T01:13:28;12.70;99.90
20070;DHT22;10195;50.868;4.382;2022-12-20T01:15:54;12.70;99.90
20070;DHT22;10195;50.868;4.382;2022-12-20T01:18:20;12.80;99.90
20070;DHT22;10195;50.868;4.382;2022-12-20T01:20:46;12.70;99.90
20070;DHT22;10195;50.868;4.382;2022-12-20T01:23:12;12.70;99.90
20070;DHT22;10195;50.868;4.382;2022-12-20T01:25:37;12.70;99.90
20070;DHT22;10195;50.868;4.382;2022-12-20T01:28:03;12.70;99.90
20070;DHT22;10195;50.868;4.382;2022-12-20T01:30:29;12.60;99.90
20070;DHT22;10195;50.868;4.382;2022-12-20T01:32:54;12.50;99.90
20070;DHT22;10195;50.868;4.382;2022-12-20T01:35:20;12.40;99.90
20070;DHT22;10195;50.868;4.382;2022-12-20T01:37:45;12.40;99.90
20070;DHT22;10195;50.868;4.382;2022-12-20T01:40:11;12.40;99.90
20070;DHT22;10195;50.868;4.382;2022-12-20T01:42:37;12.40;99.90
20070;DHT22;10195;50.868;4.382;2022-12-20T01:45:08;12.30;99.90
20070;DHT22;10195;50.868;4.382;2022-12-20T01:47:37;12.30;99.90
20070;DHT22;10195;50.868;4.382;2022-12-20T01:50:04;12.50;99.90
20070;DHT22;10195;50.868;4.382;2022-12-20T01:52:40;12.40;99.90
20070;DHT22;10195;50.868;4.382;2022-12-20T01:55:19;12.50;99.90
20070;DHT22;10195;50.868;4.382;2022-12-20T01:57:50;12.40;99.90
20070;DHT22;10195;50.868;4.382;2022-12-20T02:00:18;12.40;99.90
20070;DHT22;10195;50.868;4.382;2022-12-20T02:02:46;12.40;99.90
20070;DHT22;10195;50.868;4.382;2022-12-20T02:05:12;12.30;99.90
20070;DHT22;10195;50.868;4.382;2022-12-20T02:07:41;12.40;99.90
20070;DHT22;10195;50.868;4.382;2022-12-20T02:10:08;12.30;99.90
20070;DHT22;10195;50.868;4.382;2022-12-20T02:12:42;12.30;99.90
20070;DHT22;10195;50.868;4.382;2022-12-20T02:15:20;12.20;99.90
20070;DHT22;10195;50.868;4.382;2022-12-20T02:20:53;12.10;99.90
20070;DHT22;10195;50.868;4.382;2022-12-20T02:29:27;12.20;99.90
20070;DHT22;10195;50.868;4.382;2022-12-20T02:34:23;12.20;99.90
20070;DHT22;10195;50.868;4.382;2022-12-20T02:36:50;12.30;99.90
20070;DHT22;10195;50.868;4.382;2022-12-20T02:39:16;12.30;99.90
20070;DHT22;10195;50.868;4.382;2022-12-20T02:41:50;12.30;99.90
20070;DHT22;10195;50.868;4.382;2022-12-20T02:44:20;12.40;99.90
20070;DHT22;10195;50.868;4.382;2022-12-20T02:47:10;12.50;99.90
20070;DHT22;10195;50.868;4.382;2022-12-20T02:49:38;12.40;99.90
20070;DHT22;10195;50.868;4.382;2022-12-20T02:52:07;12.40;99.90
20070;DHT22;10195;50.868;4.382;2022-12-20T02:54:34;12.50;99.90
20070;DHT22;10195;50.868;4.382;2022-12-20T02:57:15;12.50;99.90
20070;DHT22;10195;50.868;4.382;2022-12-20T02:59:49;12.40;99.90
20070;DHT22;10195;50.868;4.382;2022-12-20T03:02:20;12.40;99.90
20070;DHT22;10195;50.868;4.382;2022-12-20T03:04:47;12.40;99.90
20070;DHT22;10195;50.868;4.382;2022-12-20T03:07:14;12.40;99.90
20070;DHT22;10195;50.868;4.382;2022-12-20T03:09:42;12.50;99.90
20070;DHT22;10195;50.868;4.382;2022-12-20T03:12:09;12.50;99.90
20070;DHT22;10195;50.868;4.382;2022-12-20T03:14:39;12.50;99.90
20070;DHT22;10195;50.868;4.382;2022-12-20T03:17:05;12.50;99.90
20070;DHT22;10195;50.868;4.382;2022-12-20T03:19:31;12.50;99.90
20070;DHT22;10195;50.868;4.382;2022-12-20T03:21:57;12.50;99.90
20070;DHT22;10195;50.868;4.382;2022-12-20T03:24:23;12.50;99.90
20070;DHT22;10195;50.868;4.382;2022-12-20T03:26:49;12.50;99.90
20070;DHT22;10195;50.868;4.382;2022-12-20T03:29:14;12.60;99.90
20070;DHT22;10195;50.868;4.382;2022-12-20T03:31:40;12.60;99.90
20070;DHT22;10195;50.868;4.382;2022-12-20T03:34:06;12.60;99.90
20070;DHT22;10195;50.868;4.382;2022-12-20T03:36:31;12.70;99.90
20070;DHT22;10195;50.868;4.382;2022-12-20T03:38:57;12.70;99.90
20070;DHT22;10195;50.868;4.382;2022-12-20T03:41:23;12.70;99.90
20070;DHT22;10195;50.868;4.382;2022-12-20T03:43:49;12.60;99.90
20070;DHT22;10195;50.868;4.382;2022-12-20T03:46:15;12.50;99.90
20070;DHT22;10195;50.868;4.382;2022-12-20T03:48:41;12.50;99.90
20070;DHT22;10195;50.868;4.382;2022-12-20T03:51:07;12.60;99.90
20070;DHT22;10195;50.868;4.382;2022-12-20T03:53:32;12.60;99.90
20070;DHT22;10195;50.868;4.382;2022-12-20T03:55:58;12.60;99.90
20070;DHT22;10195;50.868;4.382;2022-12-20T03:58:24;12.60;99.90
20070;DHT22;10195;50.868;4.382;2022-12-20T04:00:50;12.60;99.90
20070;DHT22;10195;50.868;4.382;2022-12-20T04:03:15;12.60;99.90
20070;DHT22;10195;50.868;4.382;2022-12-20T04:05:41;12.50;99.90
20070;DHT22;10195;50.868;4.382;2022-12-20T04:08:06;12.60;99.90
20070;DHT22;10195;50.868;4.382;2022-12-20T04:10:32;12.60;99.90
20070;DHT22;10195;50.868;4.382;2022-12-20T04:13:18;12.70;99.90
20070;DHT22;10195;50.868;4.382;2022-12-20T04:15:43;12.60;99.90
20070;DHT22;10195;50.868;4.382;2022-12-20T04:18:09;12.60;99.90
20070;DHT22;10195;50.868;4.382;2022-12-20T04:20:35;12.60;99.90
20070;DHT22;10195;50.868;4.382;2022-12-20T04:23:00;12.60;99.90
20070;DHT22;10195;50.868;4.382;2022-12-20T04:25:26;12.50;99.90
20070;DHT22;10195;50.868;4.382;2022-12-20T04:27:51;12.50;99.90
20070;DHT22;10195;50.868;4.382;2022-12-20T04:30:17;12.40;99.90
20070;DHT22;10195;50.868;4.382;2022-12-20T04:32:43;12.40;99.90
20070;DHT22;10195;50.868;4.382;2022-12-20T04:35:08;12.30;99.90
20070;DHT22;10195;50.868;4.382;2022-12-20T04:37:34;12.40;99.90
20070;DHT22;10195;50.868;4.382;2022-12-20T04:40:00;12.40;99.90
20070;DHT22;10195;50.868;4.382;2022-12-20T04:42:26;12.40;99.90
20070;DHT22;10195;50.868;4.382;2022-12-20T04:44:51;12.40;99.90
20070;DHT22;10195;50.868;4.382;2022-12-20T04:47:17;12.30;99.90
20070;DHT22;10195;50.868;4.382;2022-12-20T04:49:42;12.40;99.90
20070;DHT22;10195;50.868;4.382;2022-12-20T04:52:08;12.40;99.90
20070;DHT22;10195;50.868;4.382;2022-12-20T04:54:52;12.30;99.90
20070;DHT22;10195;50.868;4.382;2022-12-20T04:57:18;12.40;99.90
20070;DHT22;10195;50.868;4.382;2022-12-20T04:59:44;12.30;99.90
20070;DHT22;10195;50.868;4.382;2022-12-20T05:02:09;12.40;99.90
20070;DHT22;10195;50.868;4.382;2022-12-20T05:04:35;12.40;99.90
20070;DHT22;10195;50.868;4.382;2022-12-20T05:07:00;12.40;99.90
20070;DHT22;10195;50.868;4.382;2022-12-20T05:09:26;12.40;99.90
20070;DHT22;10195;50.868;4.382;2022-12-20T05:11:52;12.40;99.90
20070;DHT22;10195;50.868;4.382;2022-12-20T05:14:17;12.40;99.90
20070;DHT22;10195;50.868;4.382;2022-12-20T05:16:43;12.40;99.90
20070;DHT22;10195;50.868;4.382;2022-12-20T05:19:08;12.30;99.90
20070;DHT22;10195;50.868;4.382;2022-12-20T05:21:34;12.30;99.90
20070;DHT22;10195;50.868;4.382;2022-12-20T05:24:20;12.40;99.90
20070;DHT22;10195;50.868;4.382;2022-12-20T05:27:04;12.40;99.90
20070;DHT22;10195;50.868;4.382;2022-12-20T05:29:30;12.50;99.90
20070;DHT22;10195;50.868;4.382;2022-12-20T05:31:55;12.50;99.90
20070;DHT22;10195;50.868;4.382;2022-12-20T05:34:21;12.50;99.90
20070;DHT22;10195;50.868;4.382;2022-12-20T05:36:47;12.40;99.90
20070;DHT22;10195;50.868;4.382;2022-12-20T05:39:12;12.40;99.90
20070;DHT22;10195;50.868;4.382;2022-12-20T05:41:38;12.40;99.90
20070;DHT22;10195;50.868;4.382;2022-12-20T05:44:05;12.40;99.90
20070;DHT22;10195;50.868;4.382;2022-12-20T05:46:31;12.40;99.90
20070;DHT22;10195;50.868;4.382;2022-12-20T05:48:56;12.40;99.90
20070;DHT22;10195;50.868;4.382;2022-12-20T05:51:23;12.40;99.90
20070;DHT22;10195;50.868;4.382;2022-12-20T05:53:49;12.40;99.90
20070;DHT22;10195;50.868;4.382;2022-12-20T05:56:15;12.40;99.90
20070;DHT22;10195;50.868;4.382;2022-12-20T05:58:40;12.40;99.90
20070;DHT22;10195;50.868;4.382;2022-12-20T06:01:07;12.30;99.90
20070;DHT22;10195;50.868;4.382;2022-12-20T06:03:33;12.40;99.90
20070;DHT22;10195;50.868;4.382;2022-12-20T06:05:59;12.40;99.90
20070;DHT22;10195;50.868;4.382;2022-12-20T06:08:25;12.40;99.90
20070;DHT22;10195;50.868;4.382;2022-12-20T06:10:51;12.40;99.90
20070;DHT22;10195;50.868;4.382;2022-12-20T06:13:17;12.40;99.90
20070;DHT22;10195;50.868;4.382;2022-12-20T06:15:43;12.50;99.90
20070;DHT22;10195;50.868;4.382;2022-12-20T06:18:09;12.50;99.90
20070;DHT22;10195;50.868;4.382;2022-12-20T06:20:36;12.40;99.90
20070;DHT22;10195;50.868;4.382;2022-12-20T06:23:02;12.50;99.90
20070;DHT22;10195;50.868;4.382;2022-12-20T06:25:28;12.50;99.90
20070;DHT22;10195;50.868;4.382;2022-12-20T06:27:54;12.50;99.90
20070;DHT22;10195;50.868;4.382;2022-12-20T06:30:21;12.60;99.90
20070;DHT22;10195;50.868;4.382;2022-12-20T06:32:47;12.60;99.90
20070;DHT22;10195;50.868;4.382;2022-12-20T06:35:13;12.70;99.90
20070;DHT22;10195;50.868;4.382;2022-12-20T06:37:39;12.70;99.90
20070;DHT22;10195;50.868;4.382;2022-12-20T06:40:10;12.70;99.90
20070;DHT22;10195;50.868;4.382;2022-12-20T06:42:36;12.70;99.90
20070;DHT22;10195;50.868;4.382;2022-12-20T06:45:03;12.70;99.90
20070;DHT22;10195;50.868;4.382;2022-12-20T06:47:29;12.80;99.90
20070;DHT22;10195;50.868;4.382;2022-12-20T06:49:54;12.80;99.90
20070;DHT22;10195;50.868;4.382;2022-12-20T06:52:20;12.90;99.90
20070;DHT22;10195;50.868;4.382;2022-12-20T06:54:46;12.90;99.90
20070;DHT22;10195;50.868;4.382;2022-12-20T06:57:11;12.90;99.90
20070;DHT22;10195;50.868;4.382;2022-12-20T06:59:37;13.00;99.90
20070;DHT22;10195;50.868;4.382;2022-12-20T07:02:02;13.00;99.90
20070;DHT22;10195;50.868;4.382;2022-12-20T07:04:28;12.90;99.90
20070;DHT22;10195;50.868;4.382;2022-12-20T07:06:54;12.90;99.90
20070;DHT22;10195;50.868;4.382;2022-12-20T07:09:19;12.90;99.90
20070;DHT22;10195;50.868;4.382;2022-12-20T07:11:45;12.80;99.90
20070;DHT22;10195;50.868;4.382;2022-12-20T07:14:11;12.80;99.90
20070;DHT22;10195;50.868;4.382;2022-12-20T07:16:36;12.70;99.90
20070;DHT22;10195;50.868;4.382;2022-12-20T07:19:02;12.70;99.90
20070;DHT22;10195;50.868;4.382;2022-12-20T07:21:28;12.70;99.90
20070;DHT22;10195;50.868;4.382;2022-12-20T07:23:54;12.70;99.90
20070;DHT22;10195;50.868;4.382;2022-12-20T07:26:20;12.70;99.90
20070;DHT22;10195;50.868;4.382;2022-12-20T07:28:46;12.60;99.90
20070;DHT22;10195;50.868;4.382;2022-12-20T07:31:11;12.60;99.90
20070;DHT22;10195;50.868;4.382;2022-12-20T07:33:37;12.50;99.90
20070;DHT22;10195;50.868;4.382;2022-12-20T07:36:09;12.30;99.90
20070;DHT22;10195;50.868;4.382;2022-12-20T07:38:36;12.30;99.90
20070;DHT22;10195;50.868;4.382;2022-12-20T07:41:12;12.20;99.90
20070;DHT22;10195;50.868;4.382;2022-12-20T07:43:38;12.20;99.90
20070;DHT22;10195;50.868;4.382;2022-12-20T07:46:05;12.20;99.90
20070;DHT22;10195;50.868;4.382;2022-12-20T07:48:32;12.20;99.90
20070;DHT22;10195;50.868;4.382;2022-12-20T07:51:05;12.20;99.90
20070;DHT22;10195;50.868;4.382;2022-12-20T07:53:33;12.00;99.90
20070;DHT22;10195;50.868;4.382;2022-12-20T07:56:01;11.80;99.90
20070;DHT22;10195;50.868;4.382;2022-12-20T07:58:29;11.80;99.90
20070;DHT22;10195;50.868;4.382;2022-12-20T08:00:56;11.80;99.90
20070;DHT22;10195;50.868;4.382;2022-12-20T08:03:27;11.80;99.90
20070;DHT22;10195;50.868;4.382;2022-12-20T08:05:57;11.90;99.90
20070;DHT22;10195;50.868;4.382;2022-12-20T08:08:25;11.80;99.90
20070;DHT22;10195;50.868;4.382;2022-12-20T08:10:51;11.70;99.90
20070;DHT22;10195;50.868;4.382;2022-12-20T08:13:17;11.60;99.90
20070;DHT22;10195;50.868;4.382;2022-12-20T08:15:43;11.70;99.90
20070;DHT22;10195;50.868;4.382;2022-12-20T08:18:08;11.70;99.90
20070;DHT22;10195;50.868;4.382;2022-12-20T08:20:34;11.60;99.90
20070;DHT22;10195;50.868;4.382;2022-12-20T08:23:03;11.60;99.90
20070;DHT22;10195;50.868;4.382;2022-12-20T08:25:28;11.70;99.90
20070;DHT22;10195;50.868;4.382;2022-12-20T08:27:54;11.70;99.90
20070;DHT22;10195;50.868;4.382;2022-12-20T08:30:20;11.70;99.90
20070;DHT22;10195;50.868;4.382;2022-12-20T08:32:46;11.80;99.90
20070;DHT22;10195;50.868;4.382;2022-12-20T08:35:12;11.70;99.90
20070;DHT22;10195;50.868;4.382;2022-12-20T08:37:37;11.70;99.90
20070;DHT22;10195;50.868;4.382;2022-12-20T08:40:03;11.70;99.90
20070;DHT22;10195;50.868;4.382;2022-12-20T08:42:29;11.80;99.90
20070;DHT22;10195;50.868;4.382;2022-12-20T08:44:55;11.70;99.90
20070;DHT22;10195;50.868;4.382;2022-12-20T08:47:21;11.70;99.90
20070;DHT22;10195;50.868;4.382;2022-12-20T08:49:46;11.80;99.90
20070;DHT22;10195;50.868;4.382;2022-12-20T08:52:12;11.70;99.90
20070;DHT22;10195;50.868;4.382;2022-12-20T08:54:37;11.80;99.90
20070;DHT22;10195;50.868;4.382;2022-12-20T08:57:03;11.90;99.90
20070;DHT22;10195;50.868;4.382;2022-12-20T08:59:29;12.00;99.90
20070;DHT22;10195;50.868;4.382;2022-12-20T09:01:54;12.00;99.90
20070;DHT22;10195;50.868;4.382;2022-12-20T09:04:20;12.10;99.90
20070;DHT22;10195;50.868;4.382;2022-12-20T09:06:46;12.20;99.90
20070;DHT22;10195;50.868;4.382;2022-12-20T09:09:12;12.20;99.90
20070;DHT22;10195;50.868;4.382;2022-12-20T09:11:38;12.10;99.90
20070;DHT22;10195;50.868;4.382;2022-12-20T09:14:03;12.10;99.90
20070;DHT22;10195;50.868;4.382;2022-12-20T09:16:31;12.10;99.90
20070;DHT22;10195;50.868;4.382;2022-12-20T09:18:58;12.20;99.90
20070;DHT22;10195;50.868;4.382;2022-12-20T09:21:24;12.20;99.90
20070;DHT22;10195;50.868;4.382;2022-12-20T09:23:51;12.30;99.90
20070;DHT22;10195;50.868;4.382;2022-12-20T09:26:17;12.20;99.90
20070;DHT22;10195;50.868;4.382;2022-12-20T09:28:44;12.20;99.90
20070;DHT22;10195;50.868;4.382;2022-12-20T09:31:12;12.20;99.90
20070;DHT22;10195;50.868;4.382;2022-12-20T09:33:39;12.40;99.90
20070;DHT22;10195;50.868;4.382;2022-12-20T09:36:05;12.20;99.90
20070;DHT22;10195;50.868;4.382;2022-12-20T09:38:32;12.10;99.90
20070;DHT22;10195;50.868;4.382;2022-12-20T09:41:03;12.10;99.90
20070;DHT22;10195;50.868;4.382;2022-12-20T09:43:31;12.20;99.90
20070;DHT22;10195;50.868;4.382;2022-12-20T09:46:01;12.10;99.90
20070;DHT22;10195;50.868;4.382;2022-12-20T09:48:38;12.00;99.90
20070;DHT22;10195;50.868;4.382;2022-12-20T09:57:13;11.90;99.90
20070;DHT22;10195;50.868;4.382;2022-12-20T09:59:42;11.80;99.90
20070;DHT22;10195;50.868;4.382;2022-12-20T10:02:13;11.90;99.90
20070;DHT22;10195;50.868;4.382;2022-12-20T10:04:41;11.90;99.90
20070;DHT22;10195;50.868;4.382;2022-12-20T10:07:21;11.90;99.90
20070;DHT22;10195;50.868;4.382;2022-12-20T10:15:11;11.90;99.90
20070;DHT22;10195;50.868;4.382;2022-12-20T10:17:53;11.90;99.90
20070;DHT22;10195;50.868;4.382;2022-12-20T10:23:24;11.80;99.90
20070;DHT22;10195;50.868;4.382;2022-12-20T10:25:53;11.80;99.90
20070;DHT22;10195;50.868;4.382;2022-12-20T10:28:25;11.70;99.90
20070;DHT22;10195;50.868;4.382;2022-12-20T10:30:50;11.70;99.90
20070;DHT22;10195;50.868;4.382;2022-12-20T10:33:21;11.70;99.90
20070;DHT22;10195;50.868;4.382;2022-12-20T10:35:48;11.80;99.90
20070;DHT22;10195;50.868;4.382;2022-12-20T10:38:15;11.80;99.90
20070;DHT22;10195;50.868;4.382;2022-12-20T10:41:02;11.90;99.90
20070;DHT22;10195;50.868;4.382;2022-12-20T10:43:43;12.00;99.90
20070;DHT22;10195;50.868;4.382;2022-12-20T10:46:10;12.00;99.90
20070;DHT22;10195;50.868;4.382;2022-12-20T10:48:39;11.90;99.90
20070;DHT22;10195;50.868;4.382;2022-12-20T10:51:15;11.80;99.90
20070;DHT22;10195;50.868;4.382;2022-12-20T10:54:02;11.80;99.90
20070;DHT22;10195;50.868;4.382;2022-12-20T10:56:33;11.90;99.90
20070;DHT22;10195;50.868;4.382;2022-12-20T11:01:47;11.80;99.90
20070;DHT22;10195;50.868;4.382;2022-12-20T11:04:33;11.80;99.90
20070;DHT22;10195;50.868;4.382;2022-12-20T11:07:02;11.80;99.90
20070;DHT22;10195;50.868;4.382;2022-12-20T11:09:29;11.80;99.90
20070;DHT22;10195;50.868;4.382;2022-12-20T11:12:14;11.80;99.90
20070;DHT22;10195;50.868;4.382;2022-12-20T11:14:42;11.80;99.90
20070;DHT22;10195;50.868;4.382;2022-12-20T11:25:42;11.90;99.90
20070;DHT22;10195;50.868;4.382;2022-12-20T11:42:04;11.70;99.90
20070;DHT22;10195;50.868;4.382;2022-12-20T11:44:56;11.60;99.90
20070;DHT22;10195;50.868;4.382;2022-12-20T11:50:57;11.70;99.90
20070;DHT22;10195;50.868;4.382;2022-12-20T11:56:01;11.60;99.90
20070;DHT22;10195;50.868;4.382;2022-12-20T11:58:37;11.60;99.90
20070;DHT22;10195;50.868;4.382;2022-12-20T12:01:18;11.60;99.90
20070;DHT22;10195;50.868;4.382;2022-12-20T12:06:26;11.60;99.90
20070;DHT22;10195;50.868;4.382;2022-12-20T12:09:24;11.60;99.90
20070;DHT22;10195;50.868;4.382;2022-12-20T12:12:41;11.50;99.90
20070;DHT22;10195;50.868;4.382;2022-12-20T12:15:22;11.50;99.90
20070;DHT22;10195;50.868;4.382;2022-12-20T12:17:44;11.60;99.90
20070;DHT22;10195;50.868;4.382;2022-12-20T12:23:06;11.40;99.90
20070;DHT22;10195;50.868;4.382;2022-12-20T12:25:35;11.40;99.90
20070;DHT22;10195;50.868;4.382;2022-12-20T12:28:01;11.40;99.90
20070;DHT22;10195;50.868;4.382;2022-12-20T12:30:38;11.40;99.90
20070;DHT22;10195;50.868;4.382;2022-12-20T12:33:15;11.30;99.90
20070;DHT22;10195;50.868;4.382;2022-12-20T12:41:53;11.40;99.90
20070;DHT22;10195;50.868;4.382;2022-12-20T12:44:53;11.40;99.90
20070;DHT22;10195;50.868;4.382;2022-12-20T12:47:42;11.40;99.90
20070;DHT22;10195;50.868;4.382;2022-12-20T12:50:37;11.50;99.90
20070;DHT22;10195;50.868;4.382;2022-12-20T13:01:51;11.50;99.90
20070;DHT22;10195;50.868;4.382;2022-12-20T13:09:36;11.70;99.90
20070;DHT22;10195;50.868;4.382;2022-12-20T13:18:00;11.60;99.90
20070;DHT22;10195;50.868;4.382;2022-12-20T13:20:32;11.70;99.90
20070;DHT22;10195;50.868;4.382;2022-12-20T13:25:46;11.70;99.90
20070;DHT22;10195;50.868;4.382;2022-12-20T13:30:42;11.80;99.90
20070;DHT22;10195;50.868;4.382;2022-12-20T13:36:31;11.80;99.90
20070;DHT22;10195;50.868;4.382;2022-12-20T13:39:02;11.70;99.90
20070;DHT22;10195;50.868;4.382;2022-12-20T13:41:40;11.70;99.90
20070;DHT22;10195;50.868;4.382;2022-12-20T13:44:27;11.70;99.90
20070;DHT22;10195;50.868;4.382;2022-12-20T13:49:31;11.70;99.90
20070;DHT22;10195;50.868;4.382;2022-12-20T13:52:23;11.70;99.90
20070;DHT22;10195;50.868;4.382;2022-12-20T13:54:53;11.60;99.90
20070;DHT22;10195;50.868;4.382;2022-12-20T13:57:41;11.60;99.90
20070;DHT22;10195;50.868;4.382;2022-12-20T14:00:15;11.70;99.90
20070;DHT22;10195;50.868;4.382;2022-12-20T14:02:42;11.80;99.90
20070;DHT22;10195;50.868;4.382;2022-12-20T14:05:23;11.80;99.90
20070;DHT22;10195;50.868;4.382;2022-12-20T14:07:59;11.80;99.90
20070;DHT22;10195;50.868;4.382;2022-12-20T14:10:28;11.70;99.90
20070;DHT22;10195;50.868;4.382;2022-12-20T14:12:55;11.70;99.90
20070;DHT22;10195;50.868;4.382;2022-12-20T14:17:49;11.60;99.90
20070;DHT22;10195;50.868;4.382;2022-12-20T14:20:18;11.60;99.90
20070;DHT22;10195;50.868;4.382;2022-12-20T14:22:53;11.60;99.90
20070;DHT22;10195;50.868;4.382;2022-12-20T14:25:41;11.60;99.90
20070;DHT22;10195;50.868;4.382;2022-12-20T14:28:40;11.60;99.90
20070;DHT22;10195;50.868;4.382;2022-12-20T14:33:50;11.60;99.90
20070;DHT22;10195;50.868;4.382;2022-12-20T14:38:47;11.80;99.90
20070;DHT22;10195;50.868;4.382;2022-12-20T14:41:35;11.70;99.90
20070;DHT22;10195;50.868;4.382;2022-12-20T14:46:35;11.60;99.90
20070;DHT22;10195;50.868;4.382;2022-12-20T14:51:43;11.50;99.90
20070;DHT22;10195;50.868;4.382;2022-12-20T14:54:20;11.60;99.90
20070;DHT22;10195;50.868;4.382;2022-12-20T14:56:47;11.50;99.90
20070;DHT22;10195;50.868;4.382;2022-12-20T14:59:24;11.60;99.90
20070;DHT22;10195;50.868;4.382;2022-12-20T15:01:50;11.60;99.90
20070;DHT22;10195;50.868;4.382;2022-12-20T15:04:34;11.60;99.90
20070;DHT22;10195;50.868;4.382;2022-12-20T15:07:01;11.60;99.90
20070;DHT22;10195;50.868;4.382;2022-12-20T15:09:27;11.60;99.90
20070;DHT22;10195;50.868;4.382;2022-12-20T15:11:55;11.60;99.90
20070;DHT22;10195;50.868;4.382;2022-12-20T15:14:37;11.60;99.90
20070;DHT22;10195;50.868;4.382;2022-12-20T15:17:12;11.60;99.90
20070;DHT22;10195;50.868;4.382;2022-12-20T15:19:39;11.60;99.90
20070;DHT22;10195;50.868;4.382;2022-12-20T15:22:05;11.70;99.90
20070;DHT22;10195;50.868;4.382;2022-12-20T15:24:37;11.80;99.90
20070;DHT22;10195;50.868;4.382;2022-12-20T15:27:04;11.70;99.90
20070;DHT22;10195;50.868;4.382;2022-12-20T15:29:30;11.70;99.90
20070;DHT22;10195;50.868;4.382;2022-12-20T15:32:23;11.60;99.90
20070;DHT22;10195;50.868;4.382;2022-12-20T15:34:52;11.40;99.90
20070;DHT22;10195;50.868;4.382;2022-12-20T15:37:18;11.40;99.90
20070;DHT22;10195;50.868;4.382;2022-12-20T15:39:44;11.30;99.90
20070;DHT22;10195;50.868;4.382;2022-12-20T15:42:14;11.30;99.90
20070;DHT22;10195;50.868;4.382;2022-12-20T15:44:41;11.40;99.90
20070;DHT22;10195;50.868;4.382;2022-12-20T15:47:11;11.30;99.90
20070;DHT22;10195;50.868;4.382;2022-12-20T15:49:37;11.40;99.90
20070;DHT22;10195;50.868;4.382;2022-12-20T15:52:02;11.50;99.90
20070;DHT22;10195;50.868;4.382;2022-12-20T15:54:33;11.50;99.90
20070;DHT22;10195;50.868;4.382;2022-12-20T15:57:03;11.60;99.90
20070;DHT22;10195;50.868;4.382;2022-12-20T15:59:32;11.50;99.90
20070;DHT22;10195;50.868;4.382;2022-12-20T16:01:58;11.40;99.90
20070;DHT22;10195;50.868;4.382;2022-12-20T16:04:23;11.40;99.90
20070;DHT22;10195;50.868;4.382;2022-12-20T16:06:50;11.40;99.90
20070;DHT22;10195;50.868;4.382;2022-12-20T16:09:18;11.40;99.90
20070;DHT22;10195;50.868;4.382;2022-12-20T16:11:44;11.40;99.90
20070;DHT22;10195;50.868;4.382;2022-12-20T16:14:15;11.40;99.90
20070;DHT22;10195;50.868;4.382;2022-12-20T16:16:41;11.40;99.90
20070;DHT22;10195;50.868;4.382;2022-12-20T16:19:08;11.40;99.90
20070;DHT22;10195;50.868;4.382;2022-12-20T16:21:48;11.40;99.90
20070;DHT22;10195;50.868;4.382;2022-12-20T16:24:17;11.40;99.90
20070;DHT22;10195;50.868;4.382;2022-12-20T16:26:43;11.50;99.90
20070;DHT22;10195;50.868;4.382;2022-12-20T16:29:09;11.50;99.90
20070;DHT22;10195;50.868;4.382;2022-12-20T16:31:36;11.50;99.90
20070;DHT22;10195;50.868;4.382;2022-12-20T16:34:25;11.50;99.90
20070;DHT22;10195;50.868;4.382;2022-12-20T16:36:50;11.50;99.90
20070;DHT22;10195;50.868;4.382;2022-12-20T16:39:16;11.40;99.90
20070;DHT22;10195;50.868;4.382;2022-12-20T16:41:42;11.40;99.90
20070;DHT22;10195;50.868;4.382;2022-12-20T16:44:14;11.50;99.90
20070;DHT22;10195;50.868;4.382;2022-12-20T16:46:40;11.50;99.90
20070;DHT22;10195;50.868;4.382;2022-12-20T16:49:09;11.60;99.90
20070;DHT22;10195;50.868;4.382;2022-12-20T16:51:41;11.40;99.90
20070;DHT22;10195;50.868;4.382;2022-12-20T16:54:20;11.40;99.90
20070;DHT22;10195;50.868;4.382;2022-12-20T16:56:48;11.50;99.90
20070;DHT22;10195;50.868;4.382;2022-12-20T16:59:16;11.50;99.90
20070;DHT22;10195;50.868;4.382;2022-12-20T17:01:43;11.50;99.90
20070;DHT22;10195;50.868;4.382;2022-12-20T17:04:13;11.50;99.90
20070;DHT22;10195;50.868;4.382;2022-12-20T17:06:39;11.50;99.90
20070;DHT22;10195;50.868;4.382;2022-12-20T17:09:05;11.40;99.90
20070;DHT22;10195;50.868;4.382;2022-12-20T17:11:31;11.40;99.90
20070;DHT22;10195;50.868;4.382;2022-12-20T17:13:57;11.30;99.90
20070;DHT22;10195;50.868;4.382;2022-12-20T17:16:24;11.30;99.90
20070;DHT22;10195;50.868;4.382;2022-12-20T17:18:51;11.30;99.90
20070;DHT22;10195;50.868;4.382;2022-12-20T17:21:34;11.30;99.90
20070;DHT22;10195;50.868;4.382;2022-12-20T17:24:02;11.40;99.90
20070;DHT22;10195;50.868;4.382;2022-12-20T17:26:29;11.40;99.90
20070;DHT22;10195;50.868;4.382;2022-12-20T17:28:56;11.40;99.90
20070;DHT22;10195;50.868;4.382;2022-12-20T17:31:36;11.30;99.90
20070;DHT22;10195;50.868;4.382;2022-12-20T17:34:26;11.30;99.90